Time;durP1;ratioP1;P1;durP2;ratioP2;P2;SDS_P1;SDS_P2;PMS_P1;PMS_P2;Temp;Humidity;BMP_temperature;BMP_pressure;BME280_temperature;BME280_humidity;BME280_pressure;Samples;Min_cycle;Max_cycle;Signal;HPM_P1;HPM_P2
2023/07/16 00:01:19;;;;;;;5.67;2.90;;;19.30;99.90;;;;;;4991904;28;20205;-83
2023/07/16 00:03:44;;;;;;;4.87;2.47;;;19.30;99.90;;;;;;4994623;28;20223;-82
2023/07/16 00:06:10;;;;;;;4.33;2.10;;;19.30;1.00;;;;;;4992020;28;20225;-84
2023/07/16 00:08:35;;;;;;;6.40;2.37;;;19.20;1.00;;;;;;4993341;28;20195;-83
2023/07/16 00:11:06;;;;;;;6.23;2.40;;;19.20;1.00;;;;;;4991543;28;20183;-83
2023/07/16 00:13:31;;;;;;;7.67;2.90;;;19.10;1.00;;;;;;4993662;28;20220;-82
2023/07/16 00:15:57;;;;;;;4.10;2.37;;;19.10;1.00;;;;;;4992978;28;20960;-82
2023/07/16 00:18:22;;;;;;;9.73;2.90;;;19.10;1.00;;;;;;4992991;28;20203;-84
2023/07/16 00:20:48;;;;;;;5.60;2.60;;;19.10;1.00;;;;;;4991057;28;20188;-84
2023/07/16 00:23:13;;;;;;;9.87;2.20;;;19.00;1.00;;;;;;4992082;28;20214;-83
2023/07/16 00:25:39;;;;;;;4.83;2.07;;;19.00;1.00;;;;;;4996426;28;20197;-82
2023/07/16 00:28:04;;;;;;;5.77;2.40;;;19.00;1.00;;;;;;4994666;28;20210;-83
2023/07/16 00:30:30;;;;;;;6.50;2.57;;;18.90;1.00;;;;;;4997128;28;20461;-81
2023/07/16 00:32:56;;;;;;;5.77;2.50;;;19.00;1.00;;;;;;4996706;28;20540;-82
2023/07/16 00:35:21;;;;;;;4.83;2.50;;;19.00;1.00;;;;;;4991977;28;20191;-82
2023/07/16 00:37:47;;;;;;;5.13;2.20;;;19.00;1.00;;;;;;4997021;28;20495;-84
2023/07/16 00:40:13;;;;;;;7.30;2.67;;;19.00;1.00;;;;;;4996425;28;20192;-81
2023/07/16 00:42:39;;;;;;;6.33;1.90;;;19.00;1.00;;;;;;4996657;28;20265;-83
2023/07/16 00:45:11;;;;;;;9.20;2.90;;;19.00;1.00;;;;;;4995338;28;20492;-84
2023/07/16 00:47:36;;;;;;;4.90;2.57;;;18.90;1.00;;;;;;4996619;28;20246;-83
2023/07/16 00:50:02;;;;;;;6.30;2.93;;;18.90;1.00;;;;;;4996641;28;20431;-82
2023/07/16 00:52:28;;;;;;;6.33;2.50;;;18.80;1.00;;;;;;4996632;28;20246;-84
2023/07/16 00:54:54;;;;;;;3.67;2.30;;;18.80;1.00;;;;;;5007929;28;20228;-84
2023/07/16 00:57:19;;;;;;;4.17;2.13;;;18.80;1.00;;;;;;4996300;28;20442;-83
2023/07/16 00:59:45;;;;;;;6.40;2.40;;;18.80;1.00;;;;;;4995296;28;20194;-83
2023/07/16 01:02:11;;;;;;;5.30;2.23;;;18.80;1.00;;;;;;4994357;28;20211;-84
2023/07/16 01:04:36;;;;;;;6.93;2.80;;;18.80;8.60;;;;;;4995617;28;20219;-81
2023/07/16 01:07:06;;;;;;;6.00;2.53;;;18.80;1.00;;;;;;4997278;28;20816;-83
2023/07/16 01:09:32;;;;;;;8.83;2.50;;;18.80;43.70;;;;;;4992503;28;20193;-82
2023/07/16 01:12:00;;;;;;;5.87;2.27;;;18.70;57.70;;;;;;4995005;28;20472;-83
2023/07/16 01:14:26;;;;;;;5.53;2.60;;;18.70;87.30;;;;;;4996130;28;20959;-83
2023/07/16 01:16:58;;;;;;;6.23;3.40;;;18.70;99.90;;;;;;4996127;28;20969;-83
2023/07/16 01:19:24;;;;;;;4.23;2.07;;;18.70;99.90;;;;;;4996506;28;20438;-81
2023/07/16 01:21:56;;;;;;;6.33;2.60;;;18.70;99.90;;;;;;4995303;28;20443;-82
2023/07/16 01:24:42;;;;;;;12.30;2.70;;;18.70;99.90;;;;;;4996472;28;20462;-82
2023/07/16 01:27:29;;;;;;;7.27;2.30;;;18.60;99.90;;;;;;4991595;28;20463;-83
2023/07/16 01:30:01;;;;;;;6.10;2.50;;;18.60;99.90;;;;;;5001209;28;20433;-83
2023/07/16 01:32:30;;;;;;;6.07;2.60;;;18.60;99.90;;;;;;4994905;28;20454;-83
2023/07/16 01:34:56;;;;;;;5.60;2.27;;;18.60;99.90;;;;;;4996956;28;20437;-82
2023/07/16 01:37:22;;;;;;;4.60;2.50;;;18.60;99.90;;;;;;4998268;28;20443;-83
2023/07/16 01:39:48;;;;;;;4.97;2.50;;;18.60;99.90;;;;;;4998706;28;20544;-83
2023/07/16 01:42:14;;;;;;;7.33;2.50;;;18.60;99.90;;;;;;4994762;28;20202;-83
2023/07/16 01:44:39;;;;;;;7.77;2.30;;;18.60;97.70;;;;;;4992302;28;20179;-84
2023/07/16 01:47:18;;;;;;;8.20;2.57;;;18.50;81.70;;;;;;4993750;28;20218;-84
2023/07/16 01:49:43;;;;;;;8.70;2.97;;;18.50;60.80;;;;;;4994462;28;20194;-84
2023/07/16 01:52:09;;;;;;;5.87;3.27;;;18.50;38.80;;;;;;4994109;28;20619;-83
2023/07/16 01:54:36;;;;;;;7.90;2.30;;;18.50;21.50;;;;;;4994593;28;20679;-84
2023/07/16 01:57:02;;;;;;;4.00;2.60;;;18.40;1.00;;;;;;4994547;28;20473;-82
2023/07/16 01:59:27;;;;;;;6.90;2.87;;;18.40;1.00;;;;;;4988954;28;20995;-84
2023/07/16 02:01:53;;;;;;;6.07;2.50;;;18.40;1.00;;;;;;4993662;28;20191;-83
2023/07/16 02:04:19;;;;;;;4.93;2.37;;;18.40;1.00;;;;;;4995106;28;20247;-84
2023/07/16 02:06:45;;;;;;;4.90;2.80;;;18.40;1.00;;;;;;4993629;28;20190;-84
2023/07/16 02:09:11;;;;;;;9.63;2.63;;;18.30;1.00;;;;;;4995273;28;20449;-84
2023/07/16 02:11:37;;;;;;;8.43;2.20;;;18.30;1.00;;;;;;4993914;28;20189;-81
2023/07/16 02:14:02;;;;;;;8.43;1.90;;;18.30;1.00;;;;;;4993877;28;20444;-83
2023/07/16 02:16:28;;;;;;;7.53;2.40;;;18.30;99.90;;;;;;4991671;28;20201;-84
2023/07/16 02:18:54;;;;;;;5.27;3.17;;;18.30;99.90;;;;;;4994637;28;20197;-83
2023/07/16 02:21:19;;;;;;;5.27;2.20;;;18.20;99.90;;;;;;4993514;28;20195;-83
2023/07/16 02:23:45;;;;;;;10.97;2.40;;;18.20;99.90;;;;;;4993908;28;20595;-83
2023/07/16 02:26:10;;;;;;;6.50;2.60;;;18.20;1.00;;;;;;4992957;28;20195;-84
2023/07/16 02:28:36;;;;;;;7.33;2.17;;;18.20;99.90;;;;;;4992708;28;20248;-83
2023/07/16 02:31:02;;;;;;;6.60;2.73;;;18.20;99.90;;;;;;4993465;28;20663;-83
2023/07/16 02:33:28;;;;;;;7.43;2.83;;;18.20;95.70;;;;;;4991390;28;20365;-83
2023/07/16 02:35:54;;;;;;;8.00;2.20;;;18.20;1.00;;;;;;4994581;28;20511;-83
2023/07/16 02:38:19;;;;;;;10.00;3.07;;;18.10;99.90;;;;;;4995008;28;20220;-83
2023/07/16 02:40:46;;;;;;;6.80;2.97;;;18.10;39.90;;;;;;4992035;28;20258;-83
2023/07/16 02:43:12;;;;;;;12.83;2.90;;;18.10;1.00;;;;;;4993731;28;20225;-83
2023/07/16 02:45:38;;;;;;;8.27;2.40;;;18.10;1.00;;;;;;4994561;28;20441;-83
2023/07/16 02:48:05;;;;;;;8.97;2.50;;;18.10;99.90;;;;;;4994578;28;20806;-83
2023/07/16 02:50:35;;;;;;;4.07;2.40;;;18.00;99.90;;;;;;4989302;28;20272;-82
2023/07/16 02:53:00;;;;;;;5.93;2.00;;;18.00;99.90;;;;;;4994224;28;20466;-83
2023/07/16 02:55:26;;;;;;;5.07;2.67;;;17.90;1.00;;;;;;4993829;28;20528;-82
2023/07/16 02:57:51;;;;;;;5.83;2.10;;;17.90;1.00;;;;;;4992158;28;20195;-82
2023/07/16 03:00:17;;;;;;;5.73;2.73;;;17.90;99.90;;;;;;4994045;28;20221;-83
2023/07/16 03:02:43;;;;;;;10.93;3.30;;;17.90;99.90;;;;;;4991685;28;20676;-83
2023/07/16 03:05:08;;;;;;;4.93;2.47;;;17.90;99.90;;;;;;4992508;28;20183;-82
2023/07/16 03:07:34;;;;;;;9.00;2.57;;;17.80;99.90;;;;;;4991172;28;20204;-81
2023/07/16 03:10:00;;;;;;;7.63;2.47;;;17.80;99.90;;;;;;4984935;28;20229;-81
2023/07/16 03:12:25;;;;;;;10.10;2.63;;;17.80;99.90;;;;;;4994403;28;20201;-83
2023/07/16 03:14:54;;;;;;;19.97;3.40;;;17.80;99.90;;;;;;4988557;28;20447;-83
2023/07/16 03:17:22;;;;;;;7.60;2.63;;;17.80;44.00;;;;;;4992197;28;20225;-83
2023/07/16 03:19:48;;;;;;;5.40;2.57;;;17.80;1.00;;;;;;4994049;28;20778;-82
2023/07/16 03:22:13;;;;;;;7.13;2.10;;;17.80;1.00;;;;;;4992976;28;20468;-83
2023/07/16 03:24:39;;;;;;;7.03;2.47;;;17.70;1.00;;;;;;4993329;28;20484;-82
2023/07/16 03:27:06;;;;;;;9.00;2.77;;;17.70;1.00;;;;;;4987948;28;20182;-82
2023/07/16 03:29:33;;;;;;;5.87;2.57;;;17.70;99.90;;;;;;4993701;28;20182;-83
2023/07/16 03:31:58;;;;;;;6.30;2.07;;;17.70;99.90;;;;;;4993106;28;20506;-82
2023/07/16 03:34:24;;;;;;;11.83;2.90;;;17.70;99.90;;;;;;4996537;28;20443;-83
2023/07/16 03:36:50;;;;;;;7.23;3.00;;;17.70;94.80;;;;;;4992539;28;20260;-83
2023/07/16 03:39:15;;;;;;;4.30;2.57;;;17.60;7.90;;;;;;4992630;28;20206;-83
2023/07/16 03:41:41;;;;;;;7.80;2.37;;;17.60;1.00;;;;;;4993584;28;20176;-83
2023/07/16 03:44:06;;;;;;;7.47;2.83;;;17.60;1.00;;;;;;4990036;28;20207;-81
2023/07/16 03:46:32;;;;;;;8.00;2.90;;;17.60;1.00;;;;;;4992913;28;20186;-81
2023/07/16 03:48:57;;;;;;;5.33;2.77;;;17.60;1.00;;;;;;4991900;28;20193;-82
2023/07/16 03:51:23;;;;;;;7.33;3.47;;;17.60;1.00;;;;;;4992560;28;20250;-82
2023/07/16 03:53:48;;;;;;;3.70;2.63;;;17.60;1.00;;;;;;4993349;28;20654;-83
2023/07/16 03:56:14;;;;;;;7.70;2.97;;;17.60;1.00;;;;;;4992886;28;20185;-83
2023/07/16 03:58:40;;;;;;;8.03;2.83;;;17.60;99.90;;;;;;4991135;28;20951;-82
2023/07/16 04:01:05;;;;;;;8.83;2.93;;;17.60;99.90;;;;;;4989295;28;20195;-82
2023/07/16 04:03:31;;;;;;;6.50;2.60;;;17.70;99.90;;;;;;4993300;28;20235;-83
2023/07/16 04:06:04;;;;;;;9.37;3.00;;;17.70;99.90;;;;;;4992156;28;20186;-82
2023/07/16 04:08:29;;;;;;;5.97;2.90;;;17.70;99.90;;;;;;4986309;28;20238;-83
2023/07/16 04:10:55;;;;;;;8.57;2.93;;;17.70;99.90;;;;;;4993244;28;20429;-82
2023/07/16 04:13:21;;;;;;;8.90;2.83;;;17.70;1.00;;;;;;4992244;28;20303;-83
2023/07/16 04:15:46;;;;;;;6.97;2.80;;;17.70;1.00;;;;;;4991650;28;20204;-83
2023/07/16 04:18:12;;;;;;;7.23;3.03;;;17.70;1.00;;;;;;4989973;28;20579;-83
2023/07/16 04:20:37;;;;;;;5.47;2.67;;;17.70;1.00;;;;;;4994917;28;20621;-83
2023/07/16 04:23:03;;;;;;;6.93;3.03;;;17.80;1.00;;;;;;4991361;28;20256;-82
2023/07/16 04:25:28;;;;;;;5.53;2.70;;;17.80;99.90;;;;;;5000872;28;20182;-81
2023/07/16 04:27:54;;;;;;;6.80;3.03;;;17.80;99.90;;;;;;4998360;28;20186;-83
2023/07/16 04:30:19;;;;;;;15.40;3.20;;;17.90;99.90;;;;;;4993962;28;20261;-82
2023/07/16 04:32:45;;;;;;;10.23;3.10;;;17.90;99.90;;;;;;4987974;28;20207;-83
2023/07/16 04:35:10;;;;;;;5.50;3.00;;;18.00;99.90;;;;;;4991910;28;20182;-83
2023/07/16 04:37:36;;;;;;;9.50;3.60;;;18.00;2.90;;;;;;5000004;28;20206;-82
2023/07/16 04:40:01;;;;;;;5.57;2.73;;;18.00;1.00;;;;;;4992412;28;20234;-83
2023/07/16 04:42:27;;;;;;;6.80;3.20;;;18.10;1.00;;;;;;4990225;28;20217;-84
2023/07/16 04:44:52;;;;;;;6.63;2.93;;;18.10;1.00;;;;;;4993108;28;20191;-83
2023/07/16 04:47:18;;;;;;;7.23;3.20;;;18.20;99.90;;;;;;4992129;28;20956;-83
2023/07/16 04:49:44;;;;;;;8.27;3.53;;;18.20;99.90;;;;;;4987782;28;20556;-83
2023/07/16 04:52:09;;;;;;;12.80;4.23;;;18.30;99.90;;;;;;4992702;28;20203;-83
2023/07/16 04:54:38;;;;;;;13.53;4.10;;;18.30;99.90;;;;;;4992184;28;20277;-82
2023/07/16 04:57:07;;;;;;;10.87;4.13;;;18.30;99.90;;;;;;5005068;28;20195;-82
2023/07/16 04:59:33;;;;;;;7.07;3.73;;;18.40;14.40;;;;;;4974813;28;20449;-82
2023/07/16 05:01:59;;;;;;;6.77;3.80;;;18.40;1.00;;;;;;4989660;28;20475;-83
2023/07/16 05:04:24;;;;;;;12.07;3.30;;;18.50;1.00;;;;;;4992211;28;20553;-84
2023/07/16 05:06:51;;;;;;;7.70;3.70;;;18.60;1.00;;;;;;4988416;28;20259;-83
2023/07/16 05:09:17;;;;;;;9.73;4.40;;;18.70;1.00;;;;;;4988736;28;20183;-82
2023/07/16 05:11:42;;;;;;;7.67;3.60;;;18.70;1.00;;;;;;5007834;28;20446;-81
2023/07/16 05:14:08;;;;;;;11.97;3.97;;;18.80;1.00;;;;;;4994231;28;20246;-82
2023/07/16 05:16:33;;;;;;;6.00;3.90;;;18.80;1.00;;;;;;4995792;28;20640;-83
2023/07/16 05:18:59;;;;;;;14.00;5.10;;;18.80;1.00;;;;;;4996522;28;20203;-83
2023/07/16 05:21:24;;;;;;;7.13;3.53;;;18.80;1.00;;;;;;4996597;28;20313;-83
2023/07/16 05:23:50;;;;;;;10.50;5.20;;;19.00;1.00;;;;;;4994736;28;20222;-81
2023/07/16 05:26:15;;;;;;;10.00;5.37;;;19.00;1.00;;;;;;4996432;28;20251;-82
2023/07/16 05:28:41;;;;;;;7.10;4.03;;;19.10;1.00;;;;;;4990767;28;20195;-83
2023/07/16 05:31:06;;;;;;;7.00;4.00;;;19.20;99.90;;;;;;4995840;28;20637;-84
2023/07/16 05:33:32;;;;;;;8.80;5.10;;;19.20;99.90;;;;;;4994813;28;20210;-82
2023/07/16 05:35:57;;;;;;;12.17;4.47;;;19.30;99.90;;;;;;4994610;28;20197;-82
2023/07/16 05:38:23;;;;;;;12.20;4.27;;;19.40;99.90;;;;;;4993740;28;20198;-83
2023/07/16 05:40:48;;;;;;;9.73;3.40;;;19.50;99.90;;;;;;4995000;28;20203;-81
2023/07/16 05:43:14;;;;;;;7.90;3.97;;;19.60;99.90;;;;;;4995565;28;20210;-82
2023/07/16 05:45:40;;;;;;;10.13;5.27;;;19.60;99.90;;;;;;4989301;28;20214;-82
2023/07/16 05:48:05;;;;;;;10.40;4.97;;;19.70;99.90;;;;;;4992465;28;20438;-82
2023/07/16 05:50:31;;;;;;;10.27;4.20;;;19.80;99.90;;;;;;4998290;28;20182;-83
2023/07/16 05:52:56;;;;;;;11.70;4.20;;;19.90;99.90;;;;;;4999115;28;20295;-80
2023/07/16 05:55:22;;;;;;;10.70;4.57;;;20.00;99.90;;;;;;4998589;28;20243;-83
2023/07/16 05:57:47;;;;;;;8.27;4.23;;;20.10;99.90;;;;;;5004268;28;20179;-83
2023/07/16 06:00:13;;;;;;;12.30;4.97;;;20.20;99.90;;;;;;4997732;28;20186;-82
2023/07/16 06:02:39;;;;;;;7.53;3.90;;;20.40;99.90;;;;;;5016448;28;20212;-84
2023/07/16 06:05:06;;;;;;;13.63;4.70;;;20.60;99.90;;;;;;4993274;28;20230;-83
2023/07/16 06:07:31;;;;;;;7.90;3.97;;;21.10;99.90;;;;;;5002634;28;20419;-84
2023/07/16 06:09:58;;;;;;;6.47;4.20;;;22.20;99.90;;;;;;4997981;28;20445;-83
2023/07/16 06:12:26;;;;;;;10.57;4.07;;;24.70;99.90;;;;;;5001552;28;20230;-83
2023/07/16 06:14:54;;;;;;;9.33;4.77;;;28.00;99.90;;;;;;5004607;28;20747;-83
2023/07/16 06:17:20;;;;;;;11.47;4.50;;;30.80;99.90;;;;;;5004416;28;20422;-81
2023/07/16 06:20:15;;;;;;;9.17;3.97;;;32.90;99.90;;;;;;5007539;28;20815;-82
2023/07/16 06:22:45;;;;;;;6.60;4.20;;;34.90;99.90;;;;;;5001212;28;20263;-82
2023/07/16 06:25:12;;;;;;;8.83;4.00;;;36.50;99.90;;;;;;4995549;28;20419;-82
2023/07/16 06:27:38;;;;;;;11.20;3.63;;;37.70;99.90;;;;;;5003436;28;20562;-82
2023/07/16 06:30:07;;;;;;;9.37;4.00;;;38.40;99.90;;;;;;4994793;28;20481;-82
2023/07/16 06:32:32;;;;;;;6.63;4.40;;;39.20;99.90;;;;;;4991575;28;20294;-83
2023/07/16 06:34:58;;;;;;;5.90;3.63;;;40.00;99.90;;;;;;4990983;28;20916;-83
2023/07/16 06:37:25;;;;;;;8.43;4.27;;;41.10;99.90;;;;;;4989824;28;20314;-81
2023/07/16 06:39:51;;;;;;;10.77;4.30;;;41.70;99.90;;;;;;4988196;28;20183;-82
2023/07/16 06:42:16;;;;;;;6.90;3.60;;;42.00;99.90;;;;;;4990643;28;20446;-82
2023/07/16 06:44:42;;;;;;;4.80;3.93;;;42.30;99.90;;;;;;4992434;28;20214;-83
2023/07/16 06:47:08;;;;;;;8.57;3.70;;;42.60;99.90;;;;;;4992092;28;20676;-82
2023/07/16 06:49:33;;;;;;;5.40;3.67;;;42.70;99.90;;;;;;4991274;28;20196;-82
2023/07/16 06:52:01;;;;;;;7.27;3.77;;;43.70;99.90;;;;;;4992577;28;20529;-83
2023/07/16 06:54:26;;;;;;;8.30;3.57;;;44.60;89.60;;;;;;4988794;28;20211;-83
2023/07/16 06:56:52;;;;;;;6.47;3.63;;;45.70;15.90;;;;;;4987330;28;20881;-84
2023/07/16 06:59:17;;;;;;;5.60;3.90;;;46.00;27.00;;;;;;4991197;28;20599;-84
2023/07/16 07:01:43;;;;;;;7.87;4.20;;;47.30;22.40;;;;;;4990179;28;20585;-83
2023/07/16 07:04:08;;;;;;;8.43;4.30;;;47.30;19.60;;;;;;4991182;28;20187;-83
2023/07/16 07:06:34;;;;;;;6.10;4.00;;;48.00;20.60;;;;;;4989722;28;20280;-83
2023/07/16 07:08:59;;;;;;;6.83;3.47;;;48.70;12.40;;;;;;4990619;28;20198;-83
2023/07/16 07:11:27;;;;;;;6.60;3.90;;;48.70;1.00;;;;;;4988984;28;20199;-84
2023/07/16 07:13:53;;;;;;;6.57;3.83;;;49.30;1.00;;;;;;4985890;28;20238;-83
2023/07/16 07:16:19;;;;;;;6.45;3.70;;;50.20;1.00;;;;;;4990151;28;20210;-83
2023/07/16 07:18:45;;;;;;;6.55;3.33;;;51.30;1.00;;;;;;4990905;28;20260;-83
2023/07/16 07:21:10;;;;;;;8.98;3.63;;;51.10;1.00;;;;;;4989468;28;20179;-84
2023/07/16 07:23:36;;;;;;;5.80;3.25;;;51.10;1.00;;;;;;4989412;28;20218;-83
2023/07/16 07:26:01;;;;;;;6.30;3.72;;;50.80;1.00;;;;;;4989699;28;20201;-83
2023/07/16 07:28:27;;;;;;;4.93;3.30;;;51.00;1.00;;;;;;4989397;28;20191;-83
2023/07/16 07:30:52;;;;;;;7.82;3.35;;;51.10;1.00;;;;;;4980115;28;20644;-83
2023/07/16 07:33:18;;;;;;;4.82;3.20;;;51.10;1.00;;;;;;4987578;28;20207;-83
2023/07/16 07:35:44;;;;;;;7.28;3.67;;;50.40;1.00;;;;;;4990037;28;20187;-83
2023/07/16 07:38:09;;;;;;;8.38;3.60;;;51.10;1.00;;;;;;4990501;28;20186;-82
2023/07/16 07:40:34;;;;;;;5.70;3.70;;;50.00;1.00;;;;;;4991327;28;20534;-83
2023/07/16 07:43:00;;;;;;;5.20;3.70;;;47.90;1.00;;;;;;4988790;28;20264;-83
2023/07/16 07:45:26;;;;;;;8.03;3.70;;;47.80;1.00;;;;;;4986894;28;20190;-83
2023/07/16 07:47:52;;;;;;;5.87;3.23;;;48.40;1.00;;;;;;4987189;28;20241;-83
2023/07/16 07:50:17;;;;;;;5.30;3.67;;;47.00;1.00;;;;;;4990507;28;20338;-82
2023/07/16 07:52:43;;;;;;;7.43;3.90;;;46.90;1.00;;;;;;4988332;28;20207;-83
2023/07/16 07:55:08;;;;;;;6.10;4.23;;;47.30;1.00;;;;;;4990524;28;20270;-82
2023/07/16 07:57:34;;;;;;;5.30;3.63;;;47.20;1.00;;;;;;4988546;28;20683;-84
2023/07/16 08:00:00;;;;;;;6.67;3.37;;;48.50;1.00;;;;;;4989264;28;20238;-83
2023/07/16 08:02:25;;;;;;;4.60;3.13;;;48.90;1.00;;;;;;4983934;28;20325;-83
2023/07/16 08:04:52;;;;;;;5.10;3.53;;;49.90;1.00;;;;;;4990271;28;20179;-83
2023/07/16 08:07:17;;;;;;;5.57;3.20;;;49.40;1.00;;;;;;4989343;28;20174;-83
2023/07/16 08:11:00;;;;;;;4.33;3.20;;;46.40;1.00;;;;;;4988359;28;20434;-83
2023/07/16 08:13:25;;;;;;;7.80;3.33;;;46.80;1.00;;;;;;4988465;28;20580;-82
2023/07/16 08:15:51;;;;;;;6.23;3.57;;;45.20;1.00;;;;;;4988629;28;20557;-83
2023/07/16 08:18:16;;;;;;;6.43;3.87;;;43.80;1.00;;;;;;4991552;28;20211;-82
2023/07/16 08:20:45;;;;;;;7.97;3.80;;;41.80;1.00;;;;;;4987676;28;20187;-83
2023/07/16 08:23:10;;;;;;;5.73;3.43;;;40.20;1.00;;;;;;4988158;28;20230;-83
2023/07/16 08:25:36;;;;;;;8.67;4.10;;;40.80;1.00;;;;;;4989514;28;20439;-83
2023/07/16 08:28:02;;;;;;;6.47;3.63;;;40.00;1.00;;;;;;4988726;28;20211;-83
2023/07/16 08:30:28;;;;;;;7.40;4.40;;;40.40;1.00;;;;;;4988999;28;20191;-83
2023/07/16 08:32:53;;;;;;;9.70;4.07;;;39.40;1.00;;;;;;4991143;28;20816;-82
2023/07/16 08:35:19;;;;;;;7.83;4.10;;;37.20;1.00;;;;;;4990013;28;20184;-82
2023/07/16 08:37:45;;;;;;;6.00;3.70;;;35.30;1.00;;;;;;4986795;28;20214;-82
2023/07/16 08:40:14;;;;;;;8.10;3.70;;;35.10;1.00;;;;;;4992311;28;20187;-82
2023/07/16 08:42:44;;;;;;;5.17;3.60;;;35.80;1.00;;;;;;4990576;28;20462;-82
2023/07/16 08:45:11;;;;;;;6.80;3.50;;;37.00;1.00;;;;;;4992575;28;20481;-83
2023/07/16 08:47:58;;;;;;;;;;;;;;;;;;;;;
2023/07/16 08:50:26;;;;;;;5.70;3.73;;;42.00;1.00;;;;;;4994881;28;20986;-84
2023/07/16 08:56:17;;;;;;;7.57;3.60;;;42.10;1.00;;;;;;4974307;28;20442;-83
2023/07/16 08:59:01;;;;;;;8.97;4.00;;;38.30;1.00;;;;;;4991043;28;21248;-82
2023/07/16 09:01:29;;;;;;;5.63;3.33;;;35.80;1.00;;;;;;4995219;28;20466;-82
2023/07/16 09:03:55;;;;;;;13.23;4.90;;;36.50;1.00;;;;;;4988265;28;20466;-84
2023/07/16 09:06:21;;;;;;;11.27;3.77;;;37.50;1.00;;;;;;4992809;28;20472;-83
2023/07/16 09:11:50;;;;;;;4.37;3.20;;;36.70;1.00;;;;;;4993306;28;20457;-83
2023/07/16 09:14:25;;;;;;;6.90;4.10;;;37.90;1.00;;;;;;4994635;28;20487;-83
2023/07/16 09:17:09;;;;;;;9.23;3.60;;;37.90;1.00;;;;;;4995066;28;20383;-83
2023/07/16 09:19:36;;;;;;;6.70;3.77;;;39.10;1.00;;;;;;4994579;28;20863;-83
2023/07/16 09:22:02;;;;;;;6.83;4.27;;;37.30;1.00;;;;;;4993756;28;20488;-81
2023/07/16 09:24:32;;;;;;;5.67;3.90;;;36.10;1.00;;;;;;4999683;28;20450;-82
2023/07/16 09:27:00;;;;;;;6.10;3.70;;;38.10;1.00;;;;;;4998547;28;20237;-81
2023/07/16 09:29:27;;;;;;;6.60;3.17;;;40.40;1.00;;;;;;4996825;28;20434;-82
2023/07/16 09:32:05;;;;;;;7.33;3.73;;;42.30;1.00;;;;;;4992707;28;20438;-81
2023/07/16 09:34:31;;;;;;;5.03;3.13;;;40.90;1.00;;;;;;4994969;28;20469;-82
2023/07/16 09:36:57;;;;;;;7.73;3.73;;;40.90;1.00;;;;;;4996257;28;20434;-82
2023/07/16 09:39:25;;;;;;;6.20;3.17;;;41.90;1.00;;;;;;4996193;28;20483;-82
2023/07/16 09:41:52;;;;;;;4.47;3.50;;;41.00;1.00;;;;;;4999091;28;20538;-82
2023/07/16 09:44:20;;;;;;;6.23;2.90;;;42.50;1.00;;;;;;4996735;28;20988;-82
2023/07/16 09:46:56;;;;;;;6.60;3.33;;;43.90;1.00;;;;;;4993294;28;20472;-83
2023/07/16 09:49:27;;;;;;;3.50;2.60;;;43.70;1.00;;;;;;5002608;28;20489;-82
2023/07/16 09:51:56;;;;;;;5.20;3.20;;;44.00;1.00;;;;;;4995431;28;20442;-81
2023/07/16 09:54:24;;;;;;;4.77;3.40;;;42.80;1.00;;;;;;4994434;28;20554;-81
2023/07/16 09:56:58;;;;;;;5.13;3.40;;;43.20;1.00;;;;;;4990677;28;20478;-81
2023/07/16 09:59:32;;;;;;;5.07;3.30;;;42.20;1.00;;;;;;4998422;28;20844;-82
2023/07/16 10:01:58;;;;;;;4.70;3.50;;;42.90;1.00;;;;;;4989193;28;20463;-82
2023/07/16 10:04:24;;;;;;;5.90;3.03;;;43.10;1.00;;;;;;4993299;28;20458;-82
2023/07/16 10:06:53;;;;;;;4.97;3.60;;;42.80;1.00;;;;;;4997791;28;20215;-82
2023/07/16 10:09:50;;;;;;;4.07;2.80;;;41.10;1.00;;;;;;5002807;28;20183;-83
2023/07/16 10:12:20;;;;;;;5.17;3.33;;;38.60;1.00;;;;;;4996643;28;20470;-81
2023/07/16 10:14:47;;;;;;;4.70;3.43;;;37.80;1.00;;;;;;5001979;28;20450;-81
2023/07/16 10:17:14;;;;;;;4.80;2.97;;;37.20;1.00;;;;;;5006383;28;20415;-82
2023/07/16 10:20:07;;;;;;;7.17;3.53;;;38.90;1.00;;;;;;5007028;28;20422;-81
2023/07/16 10:22:43;;;;;;;4.93;3.30;;;38.40;1.00;;;;;;4993497;28;20498;-81
2023/07/16 10:25:21;;;;;;;7.63;3.77;;;36.60;1.00;;;;;;4992323;28;20434;-81
2023/07/16 10:27:48;;;;;;;6.50;4.07;;;36.30;1.00;;;;;;4996561;28;20425;-82
2023/07/16 10:30:14;;;;;;;7.73;3.40;;;35.50;1.00;;;;;;4995585;28;20808;-83
2023/07/16 10:32:40;;;;;;;5.20;3.50;;;36.10;1.00;;;;;;4995329;28;20459;-82
2023/07/16 10:35:10;;;;;;;3.90;2.97;;;36.50;1.00;;;;;;4996861;28;20430;-82
2023/07/16 10:37:39;;;;;;;7.20;3.80;;;36.20;1.00;;;;;;4992040;28;20517;-81
2023/07/16 10:40:05;;;;;;;5.77;3.20;;;35.20;1.00;;;;;;4996550;28;21013;-81
2023/07/16 10:42:32;;;;;;;3.53;2.60;;;35.30;1.00;;;;;;4988481;28;20537;-81
2023/07/16 10:45:00;;;;;;;5.90;3.17;;;35.60;1.00;;;;;;4989319;28;20446;-81
2023/07/16 10:47:30;;;;;;;5.60;3.33;;;35.40;1.00;;;;;;4994098;28;20442;-80
2023/07/16 10:49:56;;;;;;;9.03;3.33;;;35.10;1.00;;;;;;4992926;28;20431;-81
2023/07/16 10:52:23;;;;;;;3.80;3.27;;;35.10;1.00;;;;;;4994539;28;20801;-81
2023/07/16 10:54:49;;;;;;;5.93;3.20;;;35.20;1.00;;;;;;4992633;28;20188;-80
2023/07/16 10:57:16;;;;;;;3.70;2.90;;;35.60;1.00;;;;;;4998878;28;20950;-81
2023/07/16 10:59:44;;;;;;;7.60;3.27;;;35.20;1.00;;;;;;4999505;28;20445;-81
2023/07/16 11:02:14;;;;;;;7.03;3.07;;;33.90;1.00;;;;;;4993239;28;20462;-82
2023/07/16 11:04:40;;;;;;;5.67;3.50;;;33.60;1.00;;;;;;4993496;28;20556;-81
2023/07/16 11:07:11;;;;;;;9.00;3.30;;;33.50;1.00;;;;;;5001180;28;20526;-81
2023/07/16 11:09:52;;;;;;;4.70;3.00;;;33.00;1.00;;;;;;4999821;28;20438;-81
2023/07/16 11:12:20;;;;;;;7.07;3.30;;;32.30;1.00;;;;;;4994251;28;20453;-81
2023/07/16 11:14:48;;;;;;;7.03;3.40;;;32.80;1.00;;;;;;5003194;28;20954;-81
2023/07/16 11:17:14;;;;;;;4.90;3.23;;;32.40;1.00;;;;;;4995351;28;20962;-81
2023/07/16 11:19:44;;;;;;;4.73;3.17;;;31.90;1.00;;;;;;4996521;28;20503;-81
2023/07/16 11:22:09;;;;;;;5.80;3.67;;;31.60;1.00;;;;;;4995256;28;22432;-80
2023/07/16 11:24:42;;;;;;;5.20;3.13;;;31.20;1.00;;;;;;5004051;28;20469;-80
2023/07/16 11:27:15;;;;;;;6.27;3.23;;;32.30;1.00;;;;;;4999992;28;20253;-80
2023/07/16 11:29:56;;;;;;;5.40;3.00;;;32.00;1.00;;;;;;5003800;28;20441;-80
2023/07/16 11:32:36;;;;;;;5.07;3.10;;;32.20;1.00;;;;;;5001316;28;20999;-80
2023/07/16 11:35:04;;;;;;;7.90;3.60;;;33.50;1.00;;;;;;5006053;28;20914;-81
2023/07/16 11:37:31;;;;;;;4.30;3.00;;;33.10;1.00;;;;;;4990591;28;20491;-80
2023/07/16 11:39:58;;;;;;;5.37;4.03;;;32.80;1.00;;;;;;4996735;28;20449;-80
2023/07/16 11:42:35;;;;;;;6.03;3.43;;;32.20;1.00;;;;;;5003768;28;20873;-81
2023/07/16 11:45:01;;;;;;;4.67;3.10;;;32.60;1.00;;;;;;4991389;28;20505;-81
2023/07/16 11:47:27;;;;;;;5.70;3.20;;;33.10;1.00;;;;;;5005301;28;20469;-81
2023/07/16 11:49:53;;;;;;;5.33;3.03;;;32.70;1.00;;;;;;4999308;28;20425;-80
2023/07/16 11:52:29;;;;;;;7.17;3.27;;;32.40;1.00;;;;;;5000154;28;20451;-80
2023/07/16 11:54:59;;;;;;;6.50;3.00;;;32.30;1.00;;;;;;4996221;28;20436;-80
2023/07/16 11:57:25;;;;;;;4.50;2.80;;;31.90;1.00;;;;;;4994805;28;21072;-80
2023/07/16 11:59:50;;;;;;;5.00;3.20;;;31.70;1.00;;;;;;4988547;28;20442;-80
2023/07/16 12:02:16;;;;;;;7.73;3.77;;;31.70;1.00;;;;;;4992919;28;20752;-80
2023/07/16 12:04:42;;;;;;;5.30;3.50;;;31.90;1.00;;;;;;4998231;28;20188;-81
2023/07/16 12:07:08;;;;;;;4.70;3.00;;;32.60;1.00;;;;;;4988542;28;20649;-81
2023/07/16 12:09:33;;;;;;;4.37;3.27;;;32.30;1.00;;;;;;4986962;28;20187;-81
2023/07/16 12:12:00;;;;;;;5.47;3.20;;;32.60;1.00;;;;;;4993083;28;20266;-81
2023/07/16 12:14:26;;;;;;;7.07;3.77;;;33.10;1.00;;;;;;4990253;28;20214;-80
2023/07/16 12:16:56;;;;;;;5.97;3.50;;;33.90;1.00;;;;;;4990741;28;20521;-82
2023/07/16 12:19:21;;;;;;;3.17;2.80;;;33.70;1.00;;;;;;4995190;28;20446;-81
2023/07/16 12:21:47;;;;;;;6.30;3.53;;;33.70;1.00;;;;;;5005958;28;20533;-81
2023/07/16 12:24:13;;;;;;;5.97;2.90;;;34.10;1.00;;;;;;5001864;28;20578;-82
2023/07/16 12:26:38;;;;;;;4.87;3.20;;;34.90;1.00;;;;;;5005131;28;20569;-81
2023/07/16 12:29:04;;;;;;;4.87;2.80;;;34.60;1.00;;;;;;4999322;28;20202;-82
2023/07/16 12:31:31;;;;;;;3.47;2.90;;;34.30;1.00;;;;;;5004487;28;20262;-81
2023/07/16 12:33:57;;;;;;;5.10;3.00;;;34.60;1.00;;;;;;5002906;28;20238;-82
2023/07/16 12:36:23;;;;;;;5.47;3.10;;;34.90;1.00;;;;;;4997483;28;20447;-82
2023/07/16 12:38:49;;;;;;;6.40;3.40;;;34.60;1.00;;;;;;4995788;28;20431;-81
2023/07/16 12:41:15;;;;;;;5.53;3.20;;;34.10;1.00;;;;;;5007082;28;20179;-81
2023/07/16 12:43:41;;;;;;;6.30;3.10;;;33.30;1.00;;;;;;4995792;28;20199;-82
2023/07/16 12:46:07;;;;;;;6.33;3.30;;;32.60;1.00;;;;;;5008343;28;20536;-82
2023/07/16 12:48:35;;;;;;;4.53;2.97;;;32.40;1.00;;;;;;4997716;28;20274;-82
2023/07/16 12:51:06;;;;;;;7.20;3.23;;;32.30;1.00;;;;;;4997358;28;20509;-82
2023/07/16 12:53:33;;;;;;;4.60;2.50;;;32.50;1.00;;;;;;4998244;28;20482;-82
2023/07/16 12:55:58;;;;;;;5.30;3.10;;;33.10;1.00;;;;;;4996977;28;20449;-81
2023/07/16 12:58:25;;;;;;;6.87;3.13;;;33.00;1.00;;;;;;4999714;28;20446;-82
2023/07/16 13:00:51;;;;;;;6.67;2.93;;;33.20;1.00;;;;;;4997996;28;20180;-83